sensor_id;sensor_type;location;lat;lon;timestamp;pressure;altitude;pressure_sealevel;temperature;humidity
78986;BME280;68384;55.750;48.746;2023-04-24T00:00:18;99398.88;;;10.63;34.45
78986;BME280;68384;55.750;48.746;2023-04-24T00:01:21;99395.41;;;10.63;34.44
78986;BME280;68384;55.750;48.746;2023-04-24T00:02:24;99393.66;;;10.62;34.46
78986;BME280;68384;55.750;48.746;2023-04-24T00:03:28;99386.66;;;10.59;34.61
78986;BME280;68384;55.750;48.746;2023-04-24T00:04:32;99391.84;;;10.59;34.60
78986;BME280;68384;55.750;48.746;2023-04-24T00:05:35;99393.56;;;10.59;34.67
78986;BME280;68384;55.750;48.746;2023-04-24T00:06:39;99398.75;;;10.59;34.53
78986;BME280;68384;55.750;48.746;2023-04-24T00:07:45;99396.16;;;10.59;34.54
78986;BME280;68384;55.750;48.746;2023-04-24T00:08:48;99396.16;;;10.59;34.46
78986;BME280;68384;55.750;48.746;2023-04-24T00:09:51;99397.91;;;10.58;34.45
78986;BME280;68384;55.750;48.746;2023-04-24T00:10:54;99393.56;;;10.59;34.49
78986;BME280;68384;55.750;48.746;2023-04-24T00:11:58;99401.34;;;10.59;34.41
78986;BME280;68384;55.750;48.746;2023-04-24T00:13:00;99396.16;;;10.59;34.36
78986;BME280;68384;55.750;48.746;2023-04-24T00:14:04;99397.09;;;10.61;34.42
78986;BME280;68384;55.750;48.746;2023-04-24T00:15:07;99395.34;;;10.61;34.42
78986;BME280;68384;55.750;48.746;2023-04-24T00:16:13;99401.41;;;10.62;34.24
78986;BME280;68384;55.750;48.746;2023-04-24T00:17:15;99396.25;;;10.62;34.27
78986;BME280;68384;55.750;48.746;2023-04-24T00:18:22;99398.00;;;10.63;34.24
78986;BME280;68384;55.750;48.746;2023-04-24T00:19:24;99395.41;;;10.63;34.31
78986;BME280;68384;55.750;48.746;2023-04-24T00:20:28;99399.72;;;10.62;34.46
78986;BME280;68384;55.750;48.746;2023-04-24T00:21:31;99400.53;;;10.61;34.52
78986;BME280;68384;55.750;48.746;2023-04-24T00:22:35;99406.59;;;10.62;34.39
78986;BME280;68384;55.750;48.746;2023-04-24T00:23:38;99402.28;;;10.61;34.46
78986;BME280;68384;55.750;48.746;2023-04-24T00:24:41;99408.31;;;10.61;34.43
78986;BME280;68384;55.750;48.746;2023-04-24T00:25:44;99398.81;;;10.60;34.12
78986;BME280;68384;55.750;48.746;2023-04-24T00:26:48;99400.50;;;10.60;34.44
78986;BME280;68384;55.750;48.746;2023-04-24T00:27:50;99403.09;;;10.60;34.40
78986;BME280;68384;55.750;48.746;2023-04-24T00:28:54;99397.03;;;10.59;34.27
78986;BME280;68384;55.750;48.746;2023-04-24T00:29:56;99398.81;;;10.60;34.38
78986;BME280;68384;55.750;48.746;2023-04-24T00:31:00;99400.50;;;10.60;34.33
78986;BME280;68384;55.750;48.746;2023-04-24T00:32:04;99391.84;;;10.59;34.44
78986;BME280;68384;55.750;48.746;2023-04-24T00:33:08;99397.03;;;10.59;34.48
78986;BME280;68384;55.750;48.746;2023-04-24T00:34:10;99404.81;;;10.59;34.42
78986;BME280;68384;55.750;48.746;2023-04-24T00:35:14;99399.59;;;10.58;34.24
78986;BME280;68384;55.750;48.746;2023-04-24T00:36:17;99401.31;;;10.57;34.38
78986;BME280;68384;55.750;48.746;2023-04-24T00:37:22;99399.59;;;10.58;34.46
78986;BME280;68384;55.750;48.746;2023-04-24T00:38:25;99398.66;;;10.56;34.37
78986;BME280;68384;55.750;48.746;2023-04-24T00:39:29;99401.31;;;10.57;34.51
78986;BME280;68384;55.750;48.746;2023-04-24T00:40:31;99403.94;;;10.59;34.33
78986;BME280;68384;55.750;48.746;2023-04-24T00:41:35;99408.28;;;10.60;34.33
78986;BME280;68384;55.750;48.746;2023-04-24T00:42:39;99408.28;;;10.60;34.25
78986;BME280;68384;55.750;48.746;2023-04-24T00:43:43;99403.09;;;10.60;34.44
78986;BME280;68384;55.750;48.746;2023-04-24T00:44:47;99409.19;;;10.60;34.49
78986;BME280;68384;55.750;48.746;2023-04-24T00:45:50;99403.09;;;10.60;34.38
78986;BME280;68384;55.750;48.746;2023-04-24T00:46:53;99402.22;;;10.59;34.11
78986;BME280;68384;55.750;48.746;2023-04-24T00:48:00;99408.28;;;10.60;34.18
78986;BME280;68384;55.750;48.746;2023-04-24T00:49:04;99406.53;;;10.59;34.38
78986;BME280;68384;55.750;48.746;2023-04-24T00:50:08;99404.00;;;10.60;34.31
78986;BME280;68384;55.750;48.746;2023-04-24T00:51:13;99408.31;;;10.61;34.27
78986;BME280;68384;55.750;48.746;2023-04-24T00:52:15;99411.78;;;10.62;34.01
78986;BME280;68384;55.750;48.746;2023-04-24T00:53:20;99406.59;;;10.62;34.17
78986;BME280;68384;55.750;48.746;2023-04-24T00:54:22;99409.19;;;10.62;34.34
78986;BME280;68384;55.750;48.746;2023-04-24T00:55:26;99404.94;;;10.64;34.36
78986;BME280;68384;55.750;48.746;2023-04-24T00:56:29;99407.50;;;10.62;34.01
78986;BME280;68384;55.750;48.746;2023-04-24T00:57:33;99408.38;;;10.63;34.01
78986;BME280;68384;55.750;48.746;2023-04-24T00:58:36;99408.38;;;10.63;34.24
78986;BME280;68384;55.750;48.746;2023-04-24T00:59:40;99412.66;;;10.62;34.26
78986;BME280;68384;55.750;48.746;2023-04-24T01:00:44;99410.09;;;10.62;34.16
78986;BME280;68384;55.750;48.746;2023-04-24T01:01:48;99403.13;;;10.61;34.14
78986;BME280;68384;55.750;48.746;2023-04-24T01:02:51;99408.28;;;10.60;34.29
78986;BME280;68384;55.750;48.746;2023-04-24T01:03:57;99410.91;;;10.61;34.33
78986;BME280;68384;55.750;48.746;2023-04-24T01:05:00;99412.66;;;10.61;34.30
78986;BME280;68384;55.750;48.746;2023-04-24T01:06:05;99410.06;;;10.61;34.25
78986;BME280;68384;55.750;48.746;2023-04-24T01:07:09;99413.47;;;10.60;34.24
78986;BME280;68384;55.750;48.746;2023-04-24T01:08:13;99411.75;;;10.60;34.20
78986;BME280;68384;55.750;48.746;2023-04-24T01:09:17;99410.06;;;10.61;34.45
78986;BME280;68384;55.750;48.746;2023-04-24T01:10:22;99402.22;;;10.59;34.30
78986;BME280;68384;55.750;48.746;2023-04-24T01:11:26;99407.41;;;10.59;34.04
78986;BME280;68384;55.750;48.746;2023-04-24T01:12:29;99411.72;;;10.59;34.30
78986;BME280;68384;55.750;48.746;2023-04-24T01:13:33;99410.00;;;10.59;34.16
78986;BME280;68384;55.750;48.746;2023-04-24T01:14:37;99411.72;;;10.59;34.15
78986;BME280;68384;55.750;48.746;2023-04-24T01:15:40;99410.88;;;10.60;34.30
78986;BME280;68384;55.750;48.746;2023-04-24T01:16:43;99407.41;;;10.59;34.27
78986;BME280;68384;55.750;48.746;2023-04-24T01:17:45;99405.69;;;10.58;34.25
78986;BME280;68384;55.750;48.746;2023-04-24T01:18:50;99404.78;;;10.58;34.06
78986;BME280;68384;55.750;48.746;2023-04-24T01:19:54;99402.16;;;10.56;34.39
78986;BME280;68384;55.750;48.746;2023-04-24T01:20:59;99407.31;;;10.56;34.04
78986;BME280;68384;55.750;48.746;2023-04-24T01:22:08;99405.63;;;10.57;34.00
78986;BME280;68384;55.750;48.746;2023-04-24T01:23:14;99407.38;;;10.58;34.15
78986;BME280;68384;55.750;48.746;2023-04-24T01:24:17;99410.81;;;10.57;34.29
78986;BME280;68384;55.750;48.746;2023-04-24T01:25:22;99410.78;;;10.55;34.24
78986;BME280;68384;55.750;48.746;2023-04-24T01:26:25;99407.31;;;10.55;34.08
78986;BME280;68384;55.750;48.746;2023-04-24T01:27:29;99408.13;;;10.54;34.32
78986;BME280;68384;55.750;48.746;2023-04-24T01:28:31;99404.66;;;10.53;34.15
78986;BME280;68384;55.750;48.746;2023-04-24T01:29:35;99406.41;;;10.53;34.22
78986;BME280;68384;55.750;48.746;2023-04-24T01:30:38;99412.44;;;10.53;34.31
78986;BME280;68384;55.750;48.746;2023-04-24T01:31:42;99404.56;;;10.50;34.21
78986;BME280;68384;55.750;48.746;2023-04-24T01:32:45;99402.91;;;10.52;34.37
78986;BME280;68384;55.750;48.746;2023-04-24T01:33:49;99408.94;;;10.51;34.36
78986;BME280;68384;55.750;48.746;2023-04-24T01:34:53;99406.31;;;10.50;34.15
78986;BME280;68384;55.750;48.746;2023-04-24T01:35:57;99408.75;;;10.45;34.16
78986;BME280;68384;55.750;48.746;2023-04-24T01:37:00;99407.97;;;10.48;34.57
78986;BME280;68384;55.750;48.746;2023-04-24T01:38:05;99408.84;;;10.48;34.26
78986;BME280;68384;55.750;48.746;2023-04-24T01:39:08;99414.03;;;10.48;34.29
78986;BME280;68384;55.750;48.746;2023-04-24T01:40:12;99408.84;;;10.48;34.24
78986;BME280;68384;55.750;48.746;2023-04-24T01:41:15;99401.06;;;10.48;34.34
78986;BME280;68384;55.750;48.746;2023-04-24T01:42:19;99404.56;;;10.49;34.53
78986;BME280;68384;55.750;48.746;2023-04-24T01:43:21;99415.81;;;10.51;34.31
78986;BME280;68384;55.750;48.746;2023-04-24T01:44:25;99419.28;;;10.51;34.27
78986;BME280;68384;55.750;48.746;2023-04-24T01:45:28;99413.22;;;10.51;34.33
78986;BME280;68384;55.750;48.746;2023-04-24T01:46:31;99415.00;;;10.52;34.14
78986;BME280;68384;55.750;48.746;2023-04-24T01:47:36;99413.28;;;10.52;34.18
78986;BME280;68384;55.750;48.746;2023-04-24T01:48:41;99415.03;;;10.53;34.07
78986;BME280;68384;55.750;48.746;2023-04-24T01:49:45;99419.34;;;10.53;34.28
78986;BME280;68384;55.750;48.746;2023-04-24T01:50:51;99425.44;;;10.55;34.26
78986;BME280;68384;55.750;48.746;2023-04-24T01:51:53;99415.09;;;10.55;34.15
78986;BME280;68384;55.750;48.746;2023-04-24T01:52:57;99415.09;;;10.55;34.10
78986;BME280;68384;55.750;48.746;2023-04-24T01:54:01;99418.56;;;10.55;34.02
78986;BME280;68384;55.750;48.746;2023-04-24T01:55:06;99416.00;;;10.57;34.35
78986;BME280;68384;55.750;48.746;2023-04-24T01:56:09;99416.88;;;10.57;34.14
78986;BME280;68384;55.750;48.746;2023-04-24T01:57:14;99416.91;;;10.59;34.31
78986;BME280;68384;55.750;48.746;2023-04-24T01:58:16;99416.03;;;10.58;34.25
78986;BME280;68384;55.750;48.746;2023-04-24T01:59:20;99412.59;;;10.59;34.17
78986;BME280;68384;55.750;48.746;2023-04-24T02:00:24;99418.69;;;10.61;34.26
78986;BME280;68384;55.750;48.746;2023-04-24T02:01:33;99417.91;;;10.64;34.21
78986;BME280;68384;55.750;48.746;2023-04-24T02:02:36;99424.88;;;10.66;34.32
78986;BME280;68384;55.750;48.746;2023-04-24T02:03:40;99422.38;;;10.69;34.34
78986;BME280;68384;55.750;48.746;2023-04-24T02:04:43;99418.94;;;10.70;33.92
78986;BME280;68384;55.750;48.746;2023-04-24T02:05:47;99419.03;;;10.73;34.11
78986;BME280;68384;55.750;48.746;2023-04-24T02:06:49;99425.09;;;10.74;34.26
78986;BME280;68384;55.750;48.746;2023-04-24T02:07:54;99424.25;;;10.75;34.06
78986;BME280;68384;55.750;48.746;2023-04-24T02:08:56;99421.72;;;10.78;33.89
78986;BME280;68384;55.750;48.746;2023-04-24T02:10:02;99427.81;;;10.78;33.91
78986;BME280;68384;55.750;48.746;2023-04-24T02:11:06;99420.13;;;10.83;33.68
78986;BME280;68384;55.750;48.746;2023-04-24T02:12:10;99418.41;;;10.83;34.07
78986;BME280;68384;55.750;48.746;2023-04-24T02:13:12;99421.06;;;10.85;33.90
78986;BME280;68384;55.750;48.746;2023-04-24T02:14:16;99421.06;;;10.85;33.88
78986;BME280;68384;55.750;48.746;2023-04-24T02:15:19;99418.50;;;10.86;33.59
78986;BME280;68384;55.750;48.746;2023-04-24T02:16:23;99424.56;;;10.88;33.63
78986;BME280;68384;55.750;48.746;2023-04-24T02:17:25;99425.53;;;10.92;33.94
78986;BME280;68384;55.750;48.746;2023-04-24T02:18:29;99433.38;;;10.94;33.73
78986;BME280;68384;55.750;48.746;2023-04-24T02:19:32;99427.31;;;10.95;33.87
78986;BME280;68384;55.750;48.746;2023-04-24T02:20:35;99429.97;;;10.96;33.81
78986;BME280;68384;55.750;48.746;2023-04-24T02:21:38;99430.88;;;10.98;33.68
78986;BME280;68384;55.750;48.746;2023-04-24T02:22:42;99425.72;;;11.00;33.74
78986;BME280;68384;55.750;48.746;2023-04-24T02:23:44;99426.66;;;11.02;33.70
78986;BME280;68384;55.750;48.746;2023-04-24T02:24:48;99433.56;;;11.03;33.74
78986;BME280;68384;55.750;48.746;2023-04-24T02:25:52;99430.16;;;11.05;33.48
78986;BME280;68384;55.750;48.746;2023-04-24T02:26:56;99428.50;;;11.07;33.50
78986;BME280;68384;55.750;48.746;2023-04-24T02:28:00;99420.72;;;11.07;33.54
78986;BME280;68384;55.750;48.746;2023-04-24T02:29:04;99428.59;;;11.10;33.36
78986;BME280;68384;55.750;48.746;2023-04-24T02:30:08;99424.25;;;11.11;33.49
78986;BME280;68384;55.750;48.746;2023-04-24T02:31:11;99420.75;;;11.09;33.44
78986;BME280;68384;55.750;48.746;2023-04-24T02:32:14;99429.59;;;11.17;33.58
78986;BME280;68384;55.750;48.746;2023-04-24T02:33:18;99434.84;;;11.18;33.43
78986;BME280;68384;55.750;48.746;2023-04-24T02:34:20;99429.63;;;11.18;33.19
78986;BME280;68384;55.750;48.746;2023-04-24T02:35:25;99432.28;;;11.21;33.22
78986;BME280;68384;55.750;48.746;2023-04-24T02:36:27;99438.41;;;11.23;33.40
78986;BME280;68384;55.750;48.746;2023-04-24T02:37:32;99444.50;;;11.25;33.21
78986;BME280;68384;55.750;48.746;2023-04-24T02:38:34;99437.53;;;11.24;33.39
78986;BME280;68384;55.750;48.746;2023-04-24T02:39:38;99444.56;;;11.28;33.25
78986;BME280;68384;55.750;48.746;2023-04-24T02:40:41;99448.06;;;11.30;33.17
78986;BME280;68384;55.750;48.746;2023-04-24T02:41:46;99445.47;;;11.30;33.13
78986;BME280;68384;55.750;48.746;2023-04-24T02:42:49;99446.38;;;11.32;33.08
78986;BME280;68384;55.750;48.746;2023-04-24T02:43:53;99441.25;;;11.35;32.97
78986;BME280;68384;55.750;48.746;2023-04-24T02:44:56;99456.03;;;11.38;33.15
78986;BME280;68384;55.750;48.746;2023-04-24T02:45:59;99444.81;;;11.39;32.98
78986;BME280;68384;55.750;48.746;2023-04-24T02:47:02;99450.91;;;11.41;32.96
78986;BME280;68384;55.750;48.746;2023-04-24T02:48:06;99444.91;;;11.43;32.78
78986;BME280;68384;55.750;48.746;2023-04-24T02:49:09;99453.63;;;11.45;32.89
78986;BME280;68384;55.750;48.746;2023-04-24T02:50:14;99453.63;;;11.47;33.14
78986;BME280;68384;55.750;48.746;2023-04-24T02:51:17;99448.50;;;11.48;32.72
78986;BME280;68384;55.750;48.746;2023-04-24T02:52:20;99451.13;;;11.50;33.11
78986;BME280;68384;55.750;48.746;2023-04-24T02:53:23;99458.09;;;11.53;33.01
78986;BME280;68384;55.750;48.746;2023-04-24T02:54:27;99455.50;;;11.53;33.09
78986;BME280;68384;55.750;48.746;2023-04-24T02:55:30;99460.75;;;11.56;33.02
78986;BME280;68384;55.750;48.746;2023-04-24T02:56:34;99460.75;;;11.56;32.91
78986;BME280;68384;55.750;48.746;2023-04-24T02:57:38;99457.28;;;11.55;33.22
78986;BME280;68384;55.750;48.746;2023-04-24T02:58:41;99461.66;;;11.58;33.15
78986;BME280;68384;55.750;48.746;2023-04-24T02:59:44;99460.75;;;11.56;32.96
78986;BME280;68384;55.750;48.746;2023-04-24T03:00:47;99470.34;;;11.60;32.68
78986;BME280;68384;55.750;48.746;2023-04-24T03:01:50;99469.53;;;11.61;32.78
78986;BME280;68384;55.750;48.746;2023-04-24T03:02:54;99471.28;;;11.62;32.53
78986;BME280;68384;55.750;48.746;2023-04-24T03:03:56;99474.72;;;11.61;32.68
78986;BME280;68384;55.750;48.746;2023-04-24T03:05:00;99477.31;;;11.61;32.74
78986;BME280;68384;55.750;48.746;2023-04-24T03:06:04;99474.72;;;11.61;32.77
78986;BME280;68384;55.750;48.746;2023-04-24T03:07:10;99481.66;;;11.62;33.00
78986;BME280;68384;55.750;48.746;2023-04-24T03:08:12;99476.41;;;11.59;32.90
78986;BME280;68384;55.750;48.746;2023-04-24T03:09:16;99477.31;;;11.61;32.74
78986;BME280;68384;55.750;48.746;2023-04-24T03:10:19;99480.81;;;11.63;32.64
78986;BME280;68384;55.750;48.746;2023-04-24T03:11:24;99479.09;;;11.63;32.63
78986;BME280;68384;55.750;48.746;2023-04-24T03:12:27;99481.75;;;11.65;32.93
78986;BME280;68384;55.750;48.746;2023-04-24T03:13:32;99484.38;;;11.68;32.90
78986;BME280;68384;55.750;48.746;2023-04-24T03:14:35;99486.13;;;11.67;32.96
78986;BME280;68384;55.750;48.746;2023-04-24T03:15:38;99480.06;;;11.67;33.05
78986;BME280;68384;55.750;48.746;2023-04-24T03:16:41;99489.63;;;11.69;32.76
78986;BME280;68384;55.750;48.746;2023-04-24T03:17:44;99490.44;;;11.67;32.59
78986;BME280;68384;55.750;48.746;2023-04-24T03:18:47;99489.63;;;11.69;32.88
78986;BME280;68384;55.750;48.746;2023-04-24T03:19:51;99484.38;;;11.68;33.11
78986;BME280;68384;55.750;48.746;2023-04-24T03:20:53;99487.91;;;11.70;33.12
78986;BME280;68384;55.750;48.746;2023-04-24T03:22:01;99487.94;;;11.71;33.04
78986;BME280;68384;55.750;48.746;2023-04-24T03:23:04;99491.41;;;11.72;33.01
78986;BME280;68384;55.750;48.746;2023-04-24T03:24:07;99487.13;;;11.74;33.09
78986;BME280;68384;55.750;48.746;2023-04-24T03:25:10;99490.56;;;11.73;32.90
78986;BME280;68384;55.750;48.746;2023-04-24T03:26:13;99489.75;;;11.75;32.92
78986;BME280;68384;55.750;48.746;2023-04-24T03:27:16;99490.66;;;11.77;32.79
78986;BME280;68384;55.750;48.746;2023-04-24T03:28:19;99486.44;;;11.81;33.20
78986;BME280;68384;55.750;48.746;2023-04-24T03:29:23;99499.47;;;11.84;33.24
78986;BME280;68384;55.750;48.746;2023-04-24T03:30:29;99494.28;;;11.84;33.02
78986;BME280;68384;55.750;48.746;2023-04-24T03:31:32;99491.78;;;11.88;33.21
78986;BME280;68384;55.750;48.746;2023-04-24T03:32:36;99500.53;;;11.92;32.92
78986;BME280;68384;55.750;48.746;2023-04-24T03:33:38;99501.50;;;11.97;33.13
78986;BME280;68384;55.750;48.746;2023-04-24T03:34:42;99497.19;;;11.99;33.02
78986;BME280;68384;55.750;48.746;2023-04-24T03:35:44;99501.63;;;12.03;32.68
78986;BME280;68384;55.750;48.746;2023-04-24T03:36:48;99498.25;;;12.07;32.83
78986;BME280;68384;55.750;48.746;2023-04-24T03:37:51;99502.63;;;12.08;32.57
78986;BME280;68384;55.750;48.746;2023-04-24T03:38:54;99500.16;;;12.14;32.79
78986;BME280;68384;55.750;48.746;2023-04-24T03:39:58;99495.88;;;12.18;32.62
78986;BME280;68384;55.750;48.746;2023-04-24T03:41:00;99496.78;;;12.20;32.35
78986;BME280;68384;55.750;48.746;2023-04-24T03:42:03;99501.22;;;12.25;32.52
78986;BME280;68384;55.750;48.746;2023-04-24T03:43:06;99500.38;;;12.25;32.16
78986;BME280;68384;55.750;48.746;2023-04-24T03:44:10;99502.22;;;12.30;32.15
78986;BME280;68384;55.750;48.746;2023-04-24T03:45:14;99499.69;;;12.35;32.22
78986;BME280;68384;55.750;48.746;2023-04-24T03:46:18;99501.47;;;12.37;32.23
78986;BME280;68384;55.750;48.746;2023-04-24T03:47:20;99505.03;;;12.41;32.13
78986;BME280;68384;55.750;48.746;2023-04-24T03:48:24;99504.25;;;12.46;31.82
78986;BME280;68384;55.750;48.746;2023-04-24T03:49:27;99505.16;;;12.48;31.66
78986;BME280;68384;55.750;48.746;2023-04-24T03:50:30;99506.97;;;12.52;31.61
78986;BME280;68384;55.750;48.746;2023-04-24T03:51:33;99506.19;;;12.56;31.63
78986;BME280;68384;55.750;48.746;2023-04-24T03:52:37;99500.97;;;12.56;31.77
78986;BME280;68384;55.750;48.746;2023-04-24T03:53:40;99502.81;;;12.60;31.53
78986;BME280;68384;55.750;48.746;2023-04-24T03:54:43;99503.72;;;12.64;31.43
78986;BME280;68384;55.750;48.746;2023-04-24T03:55:46;99503.81;;;12.69;31.55
78986;BME280;68384;55.750;48.746;2023-04-24T03:56:50;99509.09;;;12.73;31.48
78986;BME280;68384;55.750;48.746;2023-04-24T03:57:53;99506.56;;;12.76;31.54
78986;BME280;68384;55.750;48.746;2023-04-24T03:58:56;99515.31;;;12.81;31.33
78986;BME280;68384;55.750;48.746;2023-04-24T03:59:59;99518.84;;;12.85;31.44
78986;BME280;68384;55.750;48.746;2023-04-24T04:01:08;99511.94;;;12.87;30.96
78986;BME280;68384;55.750;48.746;2023-04-24T04:02:12;99514.59;;;12.90;31.37
78986;BME280;68384;55.750;48.746;2023-04-24T04:03:15;99518.16;;;12.95;31.48
78986;BME280;68384;55.750;48.746;2023-04-24T04:04:19;99517.38;;;12.99;30.99
78986;BME280;68384;55.750;48.746;2023-04-24T04:05:22;99511.34;;;13.03;31.24
78986;BME280;68384;55.750;48.746;2023-04-24T04:06:25;99511.41;;;13.06;31.21
78986;BME280;68384;55.750;48.746;2023-04-24T04:07:28;99521.88;;;13.10;31.26
78986;BME280;68384;55.750;48.746;2023-04-24T04:08:33;99515.84;;;13.13;30.92
78986;BME280;68384;55.750;48.746;2023-04-24T04:09:35;99520.28;;;13.18;30.86
78986;BME280;68384;55.750;48.746;2023-04-24T04:10:39;99522.06;;;13.19;30.71
78986;BME280;68384;55.750;48.746;2023-04-24T04:11:41;99524.72;;;13.22;30.88
78986;BME280;68384;55.750;48.746;2023-04-24T04:12:45;99527.38;;;13.27;30.72
78986;BME280;68384;55.750;48.746;2023-04-24T04:13:48;99529.19;;;13.31;30.74
78986;BME280;68384;55.750;48.746;2023-04-24T04:14:52;99532.72;;;13.33;30.50
78986;BME280;68384;55.750;48.746;2023-04-24T04:15:54;99533.63;;;13.35;30.52
78986;BME280;68384;55.750;48.746;2023-04-24T04:17:00;99527.59;;;13.38;30.77
78986;BME280;68384;55.750;48.746;2023-04-24T04:18:03;99532.00;;;13.42;30.49
78986;BME280;68384;55.750;48.746;2023-04-24T04:19:06;99529.44;;;13.45;30.29
78986;BME280;68384;55.750;48.746;2023-04-24T04:20:10;99532.06;;;13.46;30.22
78986;BME280;68384;55.750;48.746;2023-04-24T04:21:14;99528.66;;;13.50;30.41
78986;BME280;68384;55.750;48.746;2023-04-24T04:22:16;99530.44;;;13.54;30.33
78986;BME280;68384;55.750;48.746;2023-04-24T04:23:20;99532.25;;;13.58;29.92
78986;BME280;68384;55.750;48.746;2023-04-24T04:24:22;99538.38;;;13.62;30.05
78986;BME280;68384;55.750;48.746;2023-04-24T04:25:26;99538.41;;;13.63;30.17
78986;BME280;68384;55.750;48.746;2023-04-24T04:26:29;99539.34;;;13.68;29.82
78986;BME280;68384;55.750;48.746;2023-04-24T04:27:33;99543.78;;;13.74;30.06
78986;BME280;68384;55.750;48.746;2023-04-24T04:28:36;99540.38;;;13.79;29.88
78986;BME280;68384;55.750;48.746;2023-04-24T04:29:41;99536.94;;;13.82;29.71
78986;BME280;68384;55.750;48.746;2023-04-24T04:30:44;99542.25;;;13.88;29.71
78986;BME280;68384;55.750;48.746;2023-04-24T04:31:49;99546.63;;;13.91;29.55
78986;BME280;68384;55.750;48.746;2023-04-24T04:32:53;99538.88;;;13.95;29.45
78986;BME280;68384;55.750;48.746;2023-04-24T04:33:56;99542.41;;;13.99;29.66
78986;BME280;68384;55.750;48.746;2023-04-24T04:34:59;99546.81;;;14.06;29.64
78986;BME280;68384;55.750;48.746;2023-04-24T04:36:05;99543.41;;;14.10;29.48
78986;BME280;68384;55.750;48.746;2023-04-24T04:37:08;99546.06;;;14.13;29.30
78986;BME280;68384;55.750;48.746;2023-04-24T04:38:13;99552.16;;;14.15;29.27
78986;BME280;68384;55.750;48.746;2023-04-24T04:39:19;99547.88;;;14.20;29.01
78986;BME280;68384;55.750;48.746;2023-04-24T04:40:23;99544.41;;;14.19;29.17
78986;BME280;68384;55.750;48.746;2023-04-24T04:41:25;99550.53;;;14.23;29.25
78986;BME280;68384;55.750;48.746;2023-04-24T04:42:29;99551.47;;;14.26;29.12
78986;BME280;68384;55.750;48.746;2023-04-24T04:43:32;99551.50;;;14.29;29.22
78986;BME280;68384;55.750;48.746;2023-04-24T04:44:36;99542.84;;;14.33;29.44
78986;BME280;68384;55.750;48.746;2023-04-24T04:45:40;99551.59;;;14.37;29.31
78986;BME280;68384;55.750;48.746;2023-04-24T04:46:45;99551.69;;;14.43;29.27
78986;BME280;68384;55.750;48.746;2023-04-24T04:47:48;99551.75;;;14.46;29.18
78986;BME280;68384;55.750;48.746;2023-04-24T04:48:52;99553.53;;;14.49;28.99
78986;BME280;68384;55.750;48.746;2023-04-24T04:49:55;99556.16;;;14.55;28.97
78986;BME280;68384;55.750;48.746;2023-04-24T04:51:00;99557.09;;;14.58;29.16
78986;BME280;68384;55.750;48.746;2023-04-24T04:52:02;99553.63;;;14.61;29.05
78986;BME280;68384;55.750;48.746;2023-04-24T04:53:06;99556.28;;;14.62;28.80
78986;BME280;68384;55.750;48.746;2023-04-24T04:54:08;99552.84;;;14.66;28.77
78986;BME280;68384;55.750;48.746;2023-04-24T04:55:12;99565.91;;;14.69;28.92
78986;BME280;68384;55.750;48.746;2023-04-24T04:56:15;99556.38;;;14.71;28.73
78986;BME280;68384;55.750;48.746;2023-04-24T04:57:19;99564.22;;;14.74;29.06
78986;BME280;68384;55.750;48.746;2023-04-24T04:58:22;99569.50;;;14.77;29.06
78986;BME280;68384;55.750;48.746;2023-04-24T04:59:26;99573.03;;;14.82;29.12
78986;BME280;68384;55.750;48.746;2023-04-24T05:00:29;99565.22;;;14.84;28.79
78986;BME280;68384;55.750;48.746;2023-04-24T05:01:38;99567.00;;;14.86;28.94
78986;BME280;68384;55.750;48.746;2023-04-24T05:02:41;99567.00;;;14.88;28.89
78986;BME280;68384;55.750;48.746;2023-04-24T05:03:45;99560.94;;;14.90;28.81
78986;BME280;68384;55.750;48.746;2023-04-24T05:04:49;99566.16;;;14.90;28.85
78986;BME280;68384;55.750;48.746;2023-04-24T05:05:53;99565.34;;;14.94;28.73
78986;BME280;68384;55.750;48.746;2023-04-24T05:06:56;99564.53;;;15.00;28.85
78986;BME280;68384;55.750;48.746;2023-04-24T05:07:59;99568.03;;;15.04;28.62
78986;BME280;68384;55.750;48.746;2023-04-24T05:09:02;99571.56;;;15.10;28.61
78986;BME280;68384;55.750;48.746;2023-04-24T05:10:07;99574.25;;;15.15;28.90
78986;BME280;68384;55.750;48.746;2023-04-24T05:11:10;99563.81;;;15.18;28.80
78986;BME280;68384;55.750;48.746;2023-04-24T05:12:13;99573.47;;;15.25;28.99
78986;BME280;68384;55.750;48.746;2023-04-24T05:13:16;99569.16;;;15.28;28.65
78986;BME280;68384;55.750;48.746;2023-04-24T05:14:29;99565.69;;;15.32;28.28
78986;BME280;68384;55.750;48.746;2023-04-24T05:15:31;99575.28;;;15.33;27.84
78986;BME280;68384;55.750;48.746;2023-04-24T05:16:35;99574.47;;;15.40;27.79
78986;BME280;68384;55.750;48.746;2023-04-24T05:17:39;99569.28;;;15.45;27.91
78986;BME280;68384;55.750;48.746;2023-04-24T05:18:43;99580.63;;;15.47;27.71
78986;BME280;68384;55.750;48.746;2023-04-24T05:19:45;99571.09;;;15.52;27.84
78986;BME280;68384;55.750;48.746;2023-04-24T05:20:51;99569.38;;;15.54;27.51
78986;BME280;68384;55.750;48.746;2023-04-24T05:21:54;99578.13;;;15.57;27.63
78986;BME280;68384;55.750;48.746;2023-04-24T05:22:58;99582.53;;;15.63;27.70
78986;BME280;68384;55.750;48.746;2023-04-24T05:24:00;99574.69;;;15.63;27.59
78986;BME280;68384;55.750;48.746;2023-04-24T05:25:05;99575.59;;;15.68;27.45
78986;BME280;68384;55.750;48.746;2023-04-24T05:26:08;99577.34;;;15.71;27.47
78986;BME280;68384;55.750;48.746;2023-04-24T05:27:11;99578.28;;;15.77;27.95
78986;BME280;68384;55.750;48.746;2023-04-24T05:28:14;99579.16;;;15.79;27.58
78986;BME280;68384;55.750;48.746;2023-04-24T05:29:19;99576.56;;;15.79;27.44
78986;BME280;68384;55.750;48.746;2023-04-24T05:30:22;99571.31;;;15.79;27.66
78986;BME280;68384;55.750;48.746;2023-04-24T05:31:25;99579.19;;;15.84;27.72
78986;BME280;68384;55.750;48.746;2023-04-24T05:32:28;99576.63;;;15.88;27.72